sensor_id;sensor_type;location;lat;lon;timestamp;P1;durP1;ratioP1;P2;durP2;ratioP2
16577;SDS011;8401;52.528;13.340;2023-06-14T00:00:51;4.03;;;2.70;;
16577;SDS011;8401;52.528;13.340;2023-06-14T00:03:17;5.87;;;2.60;;
16577;SDS011;8401;52.528;13.340;2023-06-14T00:05:47;3.97;;;2.10;;
16577;SDS011;8401;52.528;13.340;2023-06-14T00:08:13;2.33;;;2.10;;
16577;SDS011;8401;52.528;13.340;2023-06-14T00:10:40;5.30;;;2.53;;
16577;SDS011;8401;52.528;13.340;2023-06-14T00:13:07;2.23;;;2.00;;
16577;SDS011;8401;52.528;13.340;2023-06-14T00:15:34;2.23;;;2.03;;
16577;SDS011;8401;52.528;13.340;2023-06-14T00:18:00;4.13;;;2.60;;
16577;SDS011;8401;52.528;13.340;2023-06-14T00:20:29;3.97;;;2.10;;
16577;SDS011;8401;52.528;13.340;2023-06-14T00:22:57;4.17;;;2.30;;
16577;SDS011;8401;52.528;13.340;2023-06-14T00:25:24;4.70;;;2.70;;
16577;SDS011;8401;52.528;13.340;2023-06-14T00:27:53;5.97;;;2.50;;
16577;SDS011;8401;52.528;13.340;2023-06-14T00:30:22;3.73;;;2.70;;
16577;SDS011;8401;52.528;13.340;2023-06-14T00:32:48;3.43;;;2.70;;
16577;SDS011;8401;52.528;13.340;2023-06-14T00:35:14;3.37;;;2.60;;
16577;SDS011;8401;52.528;13.340;2023-06-14T00:37:40;4.93;;;2.80;;
16577;SDS011;8401;52.528;13.340;2023-06-14T00:40:06;2.93;;;2.53;;
16577;SDS011;8401;52.528;13.340;2023-06-14T00:42:32;2.90;;;2.43;;
16577;SDS011;8401;52.528;13.340;2023-06-14T00:44:58;3.67;;;2.80;;
16577;SDS011;8401;52.528;13.340;2023-06-14T00:47:25;3.43;;;2.60;;
16577;SDS011;8401;52.528;13.340;2023-06-14T00:49:51;4.67;;;2.90;;
16577;SDS011;8401;52.528;13.340;2023-06-14T00:52:19;5.47;;;2.90;;
16577;SDS011;8401;52.528;13.340;2023-06-14T00:54:45;3.97;;;2.90;;
16577;SDS011;8401;52.528;13.340;2023-06-14T00:57:11;4.77;;;2.80;;
16577;SDS011;8401;52.528;13.340;2023-06-14T00:59:38;3.97;;;3.00;;
16577;SDS011;8401;52.528;13.340;2023-06-14T01:02:08;5.40;;;2.90;;
16577;SDS011;8401;52.528;13.340;2023-06-14T01:04:34;6.10;;;2.87;;
16577;SDS011;8401;52.528;13.340;2023-06-14T01:10:04;4.37;;;3.00;;
16577;SDS011;8401;52.528;13.340;2023-06-14T01:15:34;4.13;;;3.10;;
16577;SDS011;8401;52.528;13.340;2023-06-14T01:18:00;4.37;;;2.83;;
16577;SDS011;8401;52.528;13.340;2023-06-14T01:20:30;3.40;;;2.90;;
16577;SDS011;8401;52.528;13.340;2023-06-14T01:22:57;3.87;;;3.10;;
16577;SDS011;8401;52.528;13.340;2023-06-14T01:25:23;3.63;;;3.33;;
16577;SDS011;8401;52.528;13.340;2023-06-14T01:27:51;4.47;;;3.30;;
16577;SDS011;8401;52.528;13.340;2023-06-14T01:30:22;3.77;;;3.17;;
16577;SDS011;8401;52.528;13.340;2023-06-14T01:32:50;6.17;;;3.07;;
16577;SDS011;8401;52.528;13.340;2023-06-14T01:35:17;4.63;;;3.17;;
16577;SDS011;8401;52.528;13.340;2023-06-14T01:37:43;4.83;;;3.50;;
16577;SDS011;8401;52.528;13.340;2023-06-14T01:40:10;6.63;;;3.80;;
16577;SDS011;8401;52.528;13.340;2023-06-14T01:42:39;5.93;;;3.47;;
16577;SDS011;8401;52.528;13.340;2023-06-14T01:45:06;4.73;;;3.17;;
16577;SDS011;8401;52.528;13.340;2023-06-14T01:47:34;3.90;;;3.50;;
16577;SDS011;8401;52.528;13.340;2023-06-14T01:50:01;5.40;;;4.10;;
16577;SDS011;8401;52.528;13.340;2023-06-14T01:52:28;4.93;;;3.60;;
16577;SDS011;8401;52.528;13.340;2023-06-14T01:54:54;5.70;;;3.70;;
16577;SDS011;8401;52.528;13.340;2023-06-14T01:57:19;4.37;;;3.50;;
16577;SDS011;8401;52.528;13.340;2023-06-14T01:59:46;4.40;;;3.47;;
16577;SDS011;8401;52.528;13.340;2023-06-14T02:02:13;7.53;;;3.20;;
16577;SDS011;8401;52.528;13.340;2023-06-14T02:04:40;3.93;;;3.57;;
16577;SDS011;8401;52.528;13.340;2023-06-14T02:07:06;6.50;;;4.40;;
16577;SDS011;8401;52.528;13.340;2023-06-14T02:09:31;6.07;;;3.70;;
16577;SDS011;8401;52.528;13.340;2023-06-14T02:11:57;5.17;;;4.00;;
16577;SDS011;8401;52.528;13.340;2023-06-14T02:14:23;4.20;;;3.40;;
16577;SDS011;8401;52.528;13.340;2023-06-14T02:16:48;3.93;;;3.23;;
16577;SDS011;8401;52.528;13.340;2023-06-14T02:19:15;5.33;;;3.90;;
16577;SDS011;8401;52.528;13.340;2023-06-14T02:21:41;5.83;;;3.93;;
16577;SDS011;8401;52.528;13.340;2023-06-14T02:24:07;4.40;;;3.80;;
16577;SDS011;8401;52.528;13.340;2023-06-14T02:26:33;4.67;;;4.03;;
16577;SDS011;8401;52.528;13.340;2023-06-14T02:28:59;5.07;;;4.03;;
16577;SDS011;8401;52.528;13.340;2023-06-14T02:31:25;4.40;;;4.00;;
16577;SDS011;8401;52.528;13.340;2023-06-14T02:33:52;6.53;;;4.53;;
16577;SDS011;8401;52.528;13.340;2023-06-14T02:36:17;4.57;;;4.10;;
16577;SDS011;8401;52.528;13.340;2023-06-14T02:38:43;6.53;;;3.83;;
16577;SDS011;8401;52.528;13.340;2023-06-14T02:41:10;8.33;;;4.00;;
16577;SDS011;8401;52.528;13.340;2023-06-14T02:43:35;4.90;;;3.80;;
16577;SDS011;8401;52.528;13.340;2023-06-14T02:46:01;5.93;;;4.20;;
16577;SDS011;8401;52.528;13.340;2023-06-14T02:48:27;6.53;;;3.97;;
16577;SDS011;8401;52.528;13.340;2023-06-14T02:50:53;5.27;;;3.93;;
16577;SDS011;8401;52.528;13.340;2023-06-14T02:53:18;5.20;;;4.33;;
16577;SDS011;8401;52.528;13.340;2023-06-14T02:55:44;4.67;;;3.80;;
16577;SDS011;8401;52.528;13.340;2023-06-14T02:58:11;4.40;;;4.00;;
16577;SDS011;8401;52.528;13.340;2023-06-14T03:00:38;5.27;;;3.77;;
16577;SDS011;8401;52.528;13.340;2023-06-14T03:03:06;6.13;;;4.13;;
16577;SDS011;8401;52.528;13.340;2023-06-14T03:05:38;4.83;;;4.00;;
16577;SDS011;8401;52.528;13.340;2023-06-14T03:08:11;6.67;;;4.13;;
16577;SDS011;8401;52.528;13.340;2023-06-14T03:10:41;5.00;;;4.10;;
16577;SDS011;8401;52.528;13.340;2023-06-14T03:13:08;5.07;;;4.07;;
16577;SDS011;8401;52.528;13.340;2023-06-14T03:15:35;5.63;;;4.60;;
16577;SDS011;8401;52.528;13.340;2023-06-14T03:18:01;5.07;;;4.10;;
16577;SDS011;8401;52.528;13.340;2023-06-14T03:20:28;5.53;;;4.10;;
16577;SDS011;8401;52.528;13.340;2023-06-14T03:22:55;7.63;;;4.40;;
16577;SDS011;8401;52.528;13.340;2023-06-14T03:25:20;9.60;;;4.33;;
16577;SDS011;8401;52.528;13.340;2023-06-14T03:27:47;5.67;;;4.57;;
16577;SDS011;8401;52.528;13.340;2023-06-14T03:30:13;5.23;;;4.50;;
16577;SDS011;8401;52.528;13.340;2023-06-14T03:32:38;6.93;;;4.80;;
16577;SDS011;8401;52.528;13.340;2023-06-14T03:35:04;7.40;;;4.50;;
16577;SDS011;8401;52.528;13.340;2023-06-14T03:37:31;6.10;;;3.93;;
16577;SDS011;8401;52.528;13.340;2023-06-14T03:39:56;7.43;;;4.77;;
16577;SDS011;8401;52.528;13.340;2023-06-14T03:42:22;5.40;;;4.83;;
16577;SDS011;8401;52.528;13.340;2023-06-14T03:44:48;8.77;;;5.03;;
16577;SDS011;8401;52.528;13.340;2023-06-14T03:47:13;10.00;;;4.97;;
16577;SDS011;8401;52.528;13.340;2023-06-14T03:49:40;6.83;;;4.63;;
16577;SDS011;8401;52.528;13.340;2023-06-14T03:52:05;5.00;;;4.50;;
16577;SDS011;8401;52.528;13.340;2023-06-14T03:54:31;8.53;;;5.03;;
16577;SDS011;8401;52.528;13.340;2023-06-14T03:56:57;7.17;;;4.80;;
16577;SDS011;8401;52.528;13.340;2023-06-14T03:59:23;5.83;;;5.23;;
16577;SDS011;8401;52.528;13.340;2023-06-14T04:01:50;6.23;;;4.60;;
16577;SDS011;8401;52.528;13.340;2023-06-14T04:04:16;9.40;;;5.30;;
16577;SDS011;8401;52.528;13.340;2023-06-14T04:06:43;5.27;;;4.27;;
16577;SDS011;8401;52.528;13.340;2023-06-14T04:09:09;6.90;;;5.37;;
16577;SDS011;8401;52.528;13.340;2023-06-14T04:11:34;5.77;;;5.20;;
16577;SDS011;8401;52.528;13.340;2023-06-14T04:14:01;7.57;;;5.20;;
16577;SDS011;8401;52.528;13.340;2023-06-14T04:16:27;9.13;;;5.57;;
16577;SDS011;8401;52.528;13.340;2023-06-14T04:18:54;6.83;;;5.43;;
16577;SDS011;8401;52.528;13.340;2023-06-14T04:21:20;8.33;;;5.20;;
16577;SDS011;8401;52.528;13.340;2023-06-14T04:23:46;9.33;;;5.60;;
16577;SDS011;8401;52.528;13.340;2023-06-14T04:26:11;9.30;;;6.00;;
16577;SDS011;8401;52.528;13.340;2023-06-14T04:28:37;8.23;;;5.50;;
16577;SDS011;8401;52.528;13.340;2023-06-14T04:31:06;7.33;;;5.60;;
16577;SDS011;8401;52.528;13.340;2023-06-14T04:33:34;6.37;;;5.23;;
16577;SDS011;8401;52.528;13.340;2023-06-14T04:36:08;13.00;;;5.13;;
16577;SDS011;8401;52.528;13.340;2023-06-14T04:38:38;7.30;;;5.60;;
16577;SDS011;8401;52.528;13.340;2023-06-14T04:41:03;10.73;;;5.47;;
16577;SDS011;8401;52.528;13.340;2023-06-14T04:43:29;6.97;;;5.37;;
16577;SDS011;8401;52.528;13.340;2023-06-14T04:45:56;7.93;;;5.80;;
16577;SDS011;8401;52.528;13.340;2023-06-14T04:48:23;7.80;;;5.83;;
16577;SDS011;8401;52.528;13.340;2023-06-14T04:50:49;10.00;;;6.30;;
16577;SDS011;8401;52.528;13.340;2023-06-14T04:53:18;6.03;;;5.43;;
16577;SDS011;8401;52.528;13.340;2023-06-14T04:55:47;9.83;;;5.87;;
16577;SDS011;8401;52.528;13.340;2023-06-14T04:58:13;8.17;;;5.80;;
16577;SDS011;8401;52.528;13.340;2023-06-14T05:00:38;7.60;;;5.50;;
16577;SDS011;8401;52.528;13.340;2023-06-14T05:03:04;8.93;;;5.60;;
16577;SDS011;8401;52.528;13.340;2023-06-14T05:05:31;9.93;;;5.20;;
16577;SDS011;8401;52.528;13.340;2023-06-14T05:07:57;6.50;;;5.43;;
16577;SDS011;8401;52.528;13.340;2023-06-14T05:10:23;7.97;;;5.23;;
16577;SDS011;8401;52.528;13.340;2023-06-14T05:12:49;6.80;;;5.67;;
16577;SDS011;8401;52.528;13.340;2023-06-14T05:15:15;9.93;;;5.33;;
16577;SDS011;8401;52.528;13.340;2023-06-14T05:17:41;7.97;;;5.90;;
16577;SDS011;8401;52.528;13.340;2023-06-14T05:20:07;6.60;;;5.37;;
16577;SDS011;8401;52.528;13.340;2023-06-14T05:22:35;8.23;;;5.37;;
16577;SDS011;8401;52.528;13.340;2023-06-14T05:25:01;9.53;;;6.37;;
16577;SDS011;8401;52.528;13.340;2023-06-14T05:27:27;6.77;;;5.97;;
16577;SDS011;8401;52.528;13.340;2023-06-14T05:29:52;7.43;;;6.03;;
16577;SDS011;8401;52.528;13.340;2023-06-14T05:32:23;10.37;;;5.53;;
16577;SDS011;8401;52.528;13.340;2023-06-14T05:34:49;7.67;;;5.70;;
16577;SDS011;8401;52.528;13.340;2023-06-14T05:37:15;9.03;;;5.73;;
16577;SDS011;8401;52.528;13.340;2023-06-14T05:39:42;8.97;;;5.47;;
16577;SDS011;8401;52.528;13.340;2023-06-14T05:42:07;10.50;;;5.63;;
16577;SDS011;8401;52.528;13.340;2023-06-14T05:44:33;6.80;;;5.13;;
16577;SDS011;8401;52.528;13.340;2023-06-14T05:46:59;8.20;;;5.60;;
16577;SDS011;8401;52.528;13.340;2023-06-14T05:49:24;9.13;;;5.90;;
16577;SDS011;8401;52.528;13.340;2023-06-14T05:51:50;8.43;;;5.03;;
16577;SDS011;8401;52.528;13.340;2023-06-14T05:54:16;9.60;;;5.23;;
16577;SDS011;8401;52.528;13.340;2023-06-14T05:56:41;8.37;;;5.17;;
16577;SDS011;8401;52.528;13.340;2023-06-14T05:59:07;8.97;;;5.43;;
16577;SDS011;8401;52.528;13.340;2023-06-14T06:01:33;6.27;;;5.47;;
16577;SDS011;8401;52.528;13.340;2023-06-14T06:04:01;7.77;;;5.47;;
16577;SDS011;8401;52.528;13.340;2023-06-14T06:06:27;7.63;;;5.60;;
16577;SDS011;8401;52.528;13.340;2023-06-14T06:08:53;9.77;;;5.50;;
16577;SDS011;8401;52.528;13.340;2023-06-14T06:11:18;8.03;;;5.67;;
16577;SDS011;8401;52.528;13.340;2023-06-14T06:13:45;7.57;;;5.30;;
16577;SDS011;8401;52.528;13.340;2023-06-14T06:16:10;8.13;;;5.37;;
16577;SDS011;8401;52.528;13.340;2023-06-14T06:18:36;10.07;;;5.77;;
16577;SDS011;8401;52.528;13.340;2023-06-14T06:21:03;8.67;;;5.60;;
16577;SDS011;8401;52.528;13.340;2023-06-14T06:23:29;8.40;;;5.40;;
16577;SDS011;8401;52.528;13.340;2023-06-14T06:25:55;7.27;;;5.43;;
16577;SDS011;8401;52.528;13.340;2023-06-14T06:28:20;11.73;;;5.33;;
16577;SDS011;8401;52.528;13.340;2023-06-14T06:30:46;8.50;;;5.23;;
16577;SDS011;8401;52.528;13.340;2023-06-14T06:33:12;7.07;;;5.00;;
16577;SDS011;8401;52.528;13.340;2023-06-14T06:35:39;9.67;;;5.23;;
16577;SDS011;8401;52.528;13.340;2023-06-14T06:38:05;7.40;;;5.00;;
16577;SDS011;8401;52.528;13.340;2023-06-14T06:40:30;9.80;;;5.17;;
16577;SDS011;8401;52.528;13.340;2023-06-14T06:42:56;9.57;;;5.60;;
16577;SDS011;8401;52.528;13.340;2023-06-14T06:45:22;7.10;;;5.30;;
16577;SDS011;8401;52.528;13.340;2023-06-14T06:47:48;7.40;;;5.50;;
16577;SDS011;8401;52.528;13.340;2023-06-14T06:50:15;6.20;;;5.40;;
16577;SDS011;8401;52.528;13.340;2023-06-14T06:52:40;9.13;;;5.50;;
16577;SDS011;8401;52.528;13.340;2023-06-14T06:55:06;7.80;;;4.73;;
16577;SDS011;8401;52.528;13.340;2023-06-14T06:57:33;6.27;;;4.90;;
16577;SDS011;8401;52.528;13.340;2023-06-14T06:59:59;6.93;;;5.13;;
16577;SDS011;8401;52.528;13.340;2023-06-14T07:02:25;6.40;;;5.30;;
16577;SDS011;8401;52.528;13.340;2023-06-14T07:04:51;12.57;;;5.33;;
16577;SDS011;8401;52.528;13.340;2023-06-14T07:07:17;6.93;;;4.77;;
16577;SDS011;8401;52.528;13.340;2023-06-14T07:09:42;8.33;;;5.80;;
16577;SDS011;8401;52.528;13.340;2023-06-14T07:12:09;8.43;;;6.07;;
16577;SDS011;8401;52.528;13.340;2023-06-14T07:14:35;6.07;;;5.07;;
16577;SDS011;8401;52.528;13.340;2023-06-14T07:17:01;8.50;;;5.40;;
16577;SDS011;8401;52.528;13.340;2023-06-14T07:19:27;7.37;;;4.93;;
16577;SDS011;8401;52.528;13.340;2023-06-14T07:21:52;7.17;;;5.13;;
16577;SDS011;8401;52.528;13.340;2023-06-14T07:24:18;8.63;;;5.43;;
16577;SDS011;8401;52.528;13.340;2023-06-14T07:26:47;9.87;;;5.30;;
16577;SDS011;8401;52.528;13.340;2023-06-14T07:29:14;5.50;;;4.93;;
16577;SDS011;8401;52.528;13.340;2023-06-14T07:31:39;9.00;;;5.33;;
16577;SDS011;8401;52.528;13.340;2023-06-14T07:34:05;8.23;;;5.10;;
16577;SDS011;8401;52.528;13.340;2023-06-14T07:36:31;8.80;;;5.00;;
16577;SDS011;8401;52.528;13.340;2023-06-14T07:38:56;9.97;;;5.30;;
16577;SDS011;8401;52.528;13.340;2023-06-14T07:41:22;9.30;;;5.60;;
16577;SDS011;8401;52.528;13.340;2023-06-14T07:43:48;8.07;;;5.13;;
16577;SDS011;8401;52.528;13.340;2023-06-14T07:46:13;10.20;;;5.23;;
16577;SDS011;8401;52.528;13.340;2023-06-14T07:48:39;7.28;;;4.57;;
16577;SDS011;8401;52.528;13.340;2023-06-14T07:51:05;7.82;;;4.65;;
16577;SDS011;8401;52.528;13.340;2023-06-14T07:53:31;6.18;;;4.80;;
16577;SDS011;8401;52.528;13.340;2023-06-14T07:55:56;6.78;;;4.55;;
16577;SDS011;8401;52.528;13.340;2023-06-14T07:58:22;7.65;;;4.60;;
16577;SDS011;8401;52.528;13.340;2023-06-14T08:00:48;7.43;;;4.78;;
16577;SDS011;8401;52.528;13.340;2023-06-14T08:03:14;8.65;;;5.35;;
16577;SDS011;8401;52.528;13.340;2023-06-14T08:05:40;5.53;;;4.53;;
16577;SDS011;8401;52.528;13.340;2023-06-14T08:08:06;5.28;;;4.22;;
16577;SDS011;8401;52.528;13.340;2023-06-14T08:10:31;6.10;;;3.55;;
16577;SDS011;8401;52.528;13.340;2023-06-14T08:12:57;5.43;;;3.92;;
16577;SDS011;8401;52.528;13.340;2023-06-14T08:15:23;4.85;;;3.95;;
16577;SDS011;8401;52.528;13.340;2023-06-14T08:17:48;8.65;;;4.18;;
16577;SDS011;8401;52.528;13.340;2023-06-14T08:20:15;7.18;;;4.35;;
16577;SDS011;8401;52.528;13.340;2023-06-14T08:22:42;5.43;;;3.72;;
16577;SDS011;8401;52.528;13.340;2023-06-14T08:25:07;11.13;;;3.78;;
16577;SDS011;8401;52.528;13.340;2023-06-14T08:27:33;8.13;;;4.20;;
16577;SDS011;8401;52.528;13.340;2023-06-14T08:30:00;5.93;;;4.32;;
16577;SDS011;8401;52.528;13.340;2023-06-14T08:32:25;6.57;;;4.03;;
16577;SDS011;8401;52.528;13.340;2023-06-14T08:34:51;5.03;;;4.28;;
16577;SDS011;8401;52.528;13.340;2023-06-14T08:37:17;5.53;;;3.88;;
16577;SDS011;8401;52.528;13.340;2023-06-14T08:39:42;5.80;;;3.65;;
16577;SDS011;8401;52.528;13.340;2023-06-14T08:42:09;9.13;;;3.90;;
16577;SDS011;8401;52.528;13.340;2023-06-14T08:44:36;4.95;;;3.85;;
16577;SDS011;8401;52.528;13.340;2023-06-14T08:47:02;4.93;;;3.78;;
16577;SDS011;8401;52.528;13.340;2023-06-14T08:49:28;6.05;;;3.60;;
16577;SDS011;8401;52.528;13.340;2023-06-14T08:51:59;3.92;;;3.42;;
16577;SDS011;8401;52.528;13.340;2023-06-14T08:54:29;10.27;;;3.35;;
16577;SDS011;8401;52.528;13.340;2023-06-14T08:56:58;5.35;;;3.63;;
16577;SDS011;8401;52.528;13.340;2023-06-14T08:59:25;7.15;;;4.30;;
16577;SDS011;8401;52.528;13.340;2023-06-14T09:01:52;6.63;;;4.60;;
16577;SDS011;8401;52.528;13.340;2023-06-14T09:04:19;4.25;;;3.45;;
16577;SDS011;8401;52.528;13.340;2023-06-14T09:06:49;7.70;;;3.83;;
16577;SDS011;8401;52.528;13.340;2023-06-14T09:09:19;5.78;;;3.40;;
16577;SDS011;8401;52.528;13.340;2023-06-14T09:11:46;7.13;;;3.35;;
16577;SDS011;8401;52.528;13.340;2023-06-14T09:14:11;4.03;;;3.22;;
16577;SDS011;8401;52.528;13.340;2023-06-14T09:16:37;5.25;;;3.13;;
16577;SDS011;8401;52.528;13.340;2023-06-14T09:19:02;6.20;;;3.17;;
16577;SDS011;8401;52.528;13.340;2023-06-14T09:21:28;5.80;;;3.22;;
16577;SDS011;8401;52.528;13.340;2023-06-14T09:24:01;6.15;;;3.47;;
16577;SDS011;8401;52.528;13.340;2023-06-14T09:26:27;7.03;;;3.75;;
16577;SDS011;8401;52.528;13.340;2023-06-14T09:28:53;6.00;;;3.45;;
16577;SDS011;8401;52.528;13.340;2023-06-14T09:31:20;5.05;;;3.50;;
16577;SDS011;8401;52.528;13.340;2023-06-14T09:33:47;7.45;;;3.58;;
16577;SDS011;8401;52.528;13.340;2023-06-14T09:36:15;4.90;;;4.15;;
16577;SDS011;8401;52.528;13.340;2023-06-14T09:38:43;5.85;;;3.60;;
16577;SDS011;8401;52.528;13.340;2023-06-14T09:41:33;8.43;;;3.83;;
16577;SDS011;8401;52.528;13.340;2023-06-14T09:44:04;9.93;;;3.50;;
16577;SDS011;8401;52.528;13.340;2023-06-14T09:46:31;6.88;;;4.40;;
16577;SDS011;8401;52.528;13.340;2023-06-14T09:48:57;7.80;;;4.03;;
16577;SDS011;8401;52.528;13.340;2023-06-14T09:51:23;5.97;;;3.60;;
16577;SDS011;8401;52.528;13.340;2023-06-14T09:53:50;4.43;;;3.65;;
16577;SDS011;8401;52.528;13.340;2023-06-14T09:56:17;6.35;;;3.92;;
16577;SDS011;8401;52.528;13.340;2023-06-14T09:58:51;5.20;;;3.67;;
16577;SDS011;8401;52.528;13.340;2023-06-14T10:01:20;5.32;;;3.80;;
16577;SDS011;8401;52.528;13.340;2023-06-14T10:03:47;7.88;;;4.10;;
16577;SDS011;8401;52.528;13.340;2023-06-14T10:06:15;7.07;;;4.00;;
16577;SDS011;8401;52.528;13.340;2023-06-14T10:08:42;5.32;;;3.53;;
16577;SDS011;8401;52.528;13.340;2023-06-14T10:11:11;4.13;;;3.63;;
16577;SDS011;8401;52.528;13.340;2023-06-14T10:13:38;7.28;;;5.20;;
16577;SDS011;8401;52.528;13.340;2023-06-14T10:16:05;10.13;;;5.22;;
16577;SDS011;8401;52.528;13.340;2023-06-14T10:18:59;8.70;;;4.30;;
16577;SDS011;8401;52.528;13.340;2023-06-14T10:24:49;7.40;;;4.20;;
16577;SDS011;8401;52.528;13.340;2023-06-14T10:27:15;9.05;;;4.38;;
16577;SDS011;8401;52.528;13.340;2023-06-14T10:32:18;6.65;;;3.97;;
16577;SDS011;8401;52.528;13.340;2023-06-14T10:34:44;6.45;;;3.55;;
16577;SDS011;8401;52.528;13.340;2023-06-14T10:37:11;7.70;;;4.03;;
16577;SDS011;8401;52.528;13.340;2023-06-14T10:39:44;5.55;;;4.22;;
16577;SDS011;8401;52.528;13.340;2023-06-14T10:42:12;9.07;;;4.82;;
16577;SDS011;8401;52.528;13.340;2023-06-14T10:44:39;7.20;;;4.35;;
16577;SDS011;8401;52.528;13.340;2023-06-14T10:50:09;6.25;;;4.40;;
16577;SDS011;8401;52.528;13.340;2023-06-14T10:52:40;5.43;;;4.05;;
16577;SDS011;8401;52.528;13.340;2023-06-14T10:57:43;9.48;;;4.40;;
16577;SDS011;8401;52.528;13.340;2023-06-14T11:00:16;7.43;;;4.15;;
16577;SDS011;8401;52.528;13.340;2023-06-14T11:05:53;6.93;;;4.43;;
16577;SDS011;8401;52.528;13.340;2023-06-14T11:11:00;7.55;;;3.90;;
16577;SDS011;8401;52.528;13.340;2023-06-14T11:13:30;5.38;;;4.05;;
16577;SDS011;8401;52.528;13.340;2023-06-14T11:15:56;8.82;;;3.88;;
16577;SDS011;8401;52.528;13.340;2023-06-14T11:18:23;7.82;;;4.30;;
16577;SDS011;8401;52.528;13.340;2023-06-14T11:20:50;11.80;;;6.22;;
16577;SDS011;8401;52.528;13.340;2023-06-14T11:23:15;8.75;;;4.20;;
16577;SDS011;8401;52.528;13.340;2023-06-14T11:25:42;9.38;;;4.45;;
16577;SDS011;8401;52.528;13.340;2023-06-14T11:28:08;5.80;;;3.83;;
16577;SDS011;8401;52.528;13.340;2023-06-14T11:30:34;6.70;;;4.97;;
16577;SDS011;8401;52.528;13.340;2023-06-14T11:32:59;11.02;;;5.93;;
16577;SDS011;8401;52.528;13.340;2023-06-14T11:35:28;7.38;;;4.63;;
16577;SDS011;8401;52.528;13.340;2023-06-14T11:37:54;11.48;;;5.30;;
16577;SDS011;8401;52.528;13.340;2023-06-14T11:40:23;7.95;;;4.78;;
16577;SDS011;8401;52.528;13.340;2023-06-14T11:42:49;7.35;;;4.38;;
16577;SDS011;8401;52.528;13.340;2023-06-14T11:45:15;6.00;;;4.15;;
16577;SDS011;8401;52.528;13.340;2023-06-14T11:47:41;6.30;;;4.50;;
16577;SDS011;8401;52.528;13.340;2023-06-14T11:50:07;5.63;;;3.53;;
16577;SDS011;8401;52.528;13.340;2023-06-14T11:52:34;8.07;;;4.07;;
16577;SDS011;8401;52.528;13.340;2023-06-14T11:55:01;6.13;;;4.30;;
16577;SDS011;8401;52.528;13.340;2023-06-14T11:57:30;7.43;;;4.00;;
16577;SDS011;8401;52.528;13.340;2023-06-14T11:59:59;6.97;;;3.92;;
16577;SDS011;8401;52.528;13.340;2023-06-14T12:02:25;10.20;;;3.70;;
16577;SDS011;8401;52.528;13.340;2023-06-14T12:04:54;6.97;;;4.45;;
16577;SDS011;8401;52.528;13.340;2023-06-14T12:07:20;6.18;;;3.80;;
16577;SDS011;8401;52.528;13.340;2023-06-14T12:12:20;11.77;;;6.57;;
16577;SDS011;8401;52.528;13.340;2023-06-14T12:14:47;5.72;;;3.60;;
16577;SDS011;8401;52.528;13.340;2023-06-14T12:17:16;6.45;;;4.93;;
16577;SDS011;8401;52.528;13.340;2023-06-14T12:19:43;5.35;;;4.05;;
16577;SDS011;8401;52.528;13.340;2023-06-14T12:22:09;11.57;;;3.85;;
16577;SDS011;8401;52.528;13.340;2023-06-14T12:24:35;4.65;;;3.40;;
16577;SDS011;8401;52.528;13.340;2023-06-14T12:27:01;6.78;;;3.80;;
16577;SDS011;8401;52.528;13.340;2023-06-14T12:29:31;5.25;;;4.07;;
16577;SDS011;8401;52.528;13.340;2023-06-14T12:31:57;5.35;;;3.78;;
16577;SDS011;8401;52.528;13.340;2023-06-14T12:34:23;6.93;;;4.15;;
16577;SDS011;8401;52.528;13.340;2023-06-14T12:36:50;8.30;;;4.18;;
16577;SDS011;8401;52.528;13.340;2023-06-14T12:39:16;5.72;;;3.45;;
16577;SDS011;8401;52.528;13.340;2023-06-14T12:41:42;5.88;;;3.10;;
16577;SDS011;8401;52.528;13.340;2023-06-14T12:44:07;8.63;;;3.65;;
16577;SDS011;8401;52.528;13.340;2023-06-14T12:46:34;4.95;;;3.65;;
16577;SDS011;8401;52.528;13.340;2023-06-14T12:49:04;9.55;;;3.58;;
16577;SDS011;8401;52.528;13.340;2023-06-14T12:51:31;4.70;;;3.08;;
16577;SDS011;8401;52.528;13.340;2023-06-14T12:53:57;7.38;;;3.33;;
16577;SDS011;8401;52.528;13.340;2023-06-14T12:56:23;8.88;;;3.80;;
16577;SDS011;8401;52.528;13.340;2023-06-14T12:58:48;3.10;;;2.75;;
16577;SDS011;8401;52.528;13.340;2023-06-14T13:01:14;7.47;;;3.85;;
16577;SDS011;8401;52.528;13.340;2023-06-14T13:03:40;5.97;;;3.50;;
16577;SDS011;8401;52.528;13.340;2023-06-14T13:06:05;6.80;;;4.20;;
16577;SDS011;8401;52.528;13.340;2023-06-14T13:08:31;5.68;;;3.38;;
16577;SDS011;8401;52.528;13.340;2023-06-14T13:10:57;5.07;;;3.17;;
16577;SDS011;8401;52.528;13.340;2023-06-14T13:13:23;3.65;;;3.35;;
16577;SDS011;8401;52.528;13.340;2023-06-14T13:15:48;5.80;;;3.70;;
16577;SDS011;8401;52.528;13.340;2023-06-14T13:18:15;4.18;;;3.42;;
16577;SDS011;8401;52.528;13.340;2023-06-14T13:20:40;4.80;;;3.33;;
16577;SDS011;8401;52.528;13.340;2023-06-14T13:23:10;5.68;;;3.35;;
16577;SDS011;8401;52.528;13.340;2023-06-14T13:25:36;6.00;;;3.15;;
16577;SDS011;8401;52.528;13.340;2023-06-14T13:28:03;5.07;;;3.17;;
16577;SDS011;8401;52.528;13.340;2023-06-14T13:30:30;5.05;;;3.22;;
16577;SDS011;8401;52.528;13.340;2023-06-14T13:32:57;6.70;;;3.38;;
16577;SDS011;8401;52.528;13.340;2023-06-14T13:35:23;5.88;;;3.60;;
16577;SDS011;8401;52.528;13.340;2023-06-14T13:37:49;4.00;;;3.25;;
16577;SDS011;8401;52.528;13.340;2023-06-14T13:40:15;8.88;;;3.22;;
16577;SDS011;8401;52.528;13.340;2023-06-14T13:42:41;5.43;;;3.17;;
16577;SDS011;8401;52.528;13.340;2023-06-14T13:45:07;6.55;;;3.22;;
16577;SDS011;8401;52.528;13.340;2023-06-14T13:47:33;7.78;;;3.10;;
16577;SDS011;8401;52.528;13.340;2023-06-14T13:49:59;4.95;;;2.92;;
16577;SDS011;8401;52.528;13.340;2023-06-14T13:52:25;5.13;;;3.15;;
16577;SDS011;8401;52.528;13.340;2023-06-14T13:54:51;5.88;;;3.47;;
16577;SDS011;8401;52.528;13.340;2023-06-14T13:57:17;3.67;;;3.00;;
16577;SDS011;8401;52.528;13.340;2023-06-14T13:59:43;6.38;;;3.33;;
16577;SDS011;8401;52.528;13.340;2023-06-14T14:02:12;8.32;;;3.15;;
16577;SDS011;8401;52.528;13.340;2023-06-14T14:04:38;8.07;;;3.50;;
16577;SDS011;8401;52.528;13.340;2023-06-14T14:07:04;6.22;;;3.08;;
16577;SDS011;8401;52.528;13.340;2023-06-14T14:09:31;6.68;;;3.50;;
16577;SDS011;8401;52.528;13.340;2023-06-14T14:12:00;6.05;;;3.10;;
16577;SDS011;8401;52.528;13.340;2023-06-14T14:14:29;5.13;;;2.95;;
16577;SDS011;8401;52.528;13.340;2023-06-14T14:16:57;6.82;;;3.75;;
16577;SDS011;8401;52.528;13.340;2023-06-14T14:19:23;5.43;;;3.30;;
16577;SDS011;8401;52.528;13.340;2023-06-14T14:21:49;4.35;;;2.95;;
16577;SDS011;8401;52.528;13.340;2023-06-14T14:24:15;6.05;;;3.35;;
16577;SDS011;8401;52.528;13.340;2023-06-14T14:26:41;5.72;;;3.42;;
16577;SDS011;8401;52.528;13.340;2023-06-14T14:29:07;6.72;;;3.42;;
16577;SDS011;8401;52.528;13.340;2023-06-14T14:31:33;5.00;;;2.83;;
16577;SDS011;8401;52.528;13.340;2023-06-14T14:33:59;6.50;;;3.22;;
16577;SDS011;8401;52.528;13.340;2023-06-14T14:36:25;9.10;;;3.55;;
16577;SDS011;8401;52.528;13.340;2023-06-14T14:38:50;12.82;;;3.88;;
16577;SDS011;8401;52.528;13.340;2023-06-14T14:41:19;4.95;;;3.22;;
16577;SDS011;8401;52.528;13.340;2023-06-14T14:43:45;6.20;;;3.45;;
16577;SDS011;8401;52.528;13.340;2023-06-14T14:46:11;7.38;;;3.67;;
16577;SDS011;8401;52.528;13.340;2023-06-14T14:48:36;6.18;;;3.50;;
16577;SDS011;8401;52.528;13.340;2023-06-14T14:51:02;5.20;;;3.60;;
16577;SDS011;8401;52.528;13.340;2023-06-14T14:53:28;6.68;;;4.00;;
16577;SDS011;8401;52.528;13.340;2023-06-14T14:55:54;7.05;;;4.13;;
16577;SDS011;8401;52.528;13.340;2023-06-14T14:58:20;4.38;;;3.40;;
16577;SDS011;8401;52.528;13.340;2023-06-14T15:00:46;4.57;;;3.13;;
16577;SDS011;8401;52.528;13.340;2023-06-14T15:03:12;5.00;;;3.30;;
16577;SDS011;8401;52.528;13.340;2023-06-14T15:05:38;5.90;;;3.33;;
16577;SDS011;8401;52.528;13.340;2023-06-14T15:08:04;4.75;;;3.67;;
16577;SDS011;8401;52.528;13.340;2023-06-14T15:10:36;6.75;;;3.58;;